sensor_id;sensor_type;location;lat;lon;timestamp;P1;durP1;ratioP1;P2;durP2;ratioP2
58466;SDS011;44255;49.244;7.726;2022-07-18T03:32:00;5.32;;;1.45;;
58466;SDS011;44255;49.244;7.726;2022-07-18T03:34:25;3.93;;;1.33;;
58466;SDS011;44255;49.244;7.726;2022-07-18T03:36:50;3.77;;;1.40;;
58466;SDS011;44255;49.244;7.726;2022-07-18T03:39:15;2.13;;;1.43;;
58466;SDS011;44255;49.244;7.726;2022-07-18T03:41:41;3.33;;;1.47;;
58466;SDS011;44255;49.244;7.726;2022-07-18T03:44:06;2.60;;;1.20;;
58466;SDS011;44255;49.244;7.726;2022-07-18T03:46:31;1.50;;;1.30;;
58466;SDS011;44255;49.244;7.726;2022-07-18T03:48:57;3.42;;;1.30;;
58466;SDS011;44255;49.244;7.726;2022-07-18T03:51:23;2.53;;;1.30;;
58466;SDS011;44255;49.244;7.726;2022-07-18T03:53:48;1.83;;;1.00;;
58466;SDS011;44255;49.244;7.726;2022-07-18T03:56:14;4.07;;;0.90;;
58466;SDS011;44255;49.244;7.726;2022-07-18T03:58:40;2.40;;;1.23;;
58466;SDS011;44255;49.244;7.726;2022-07-18T04:01:05;2.70;;;1.20;;
58466;SDS011;44255;49.244;7.726;2022-07-18T04:03:31;2.60;;;1.20;;
58466;SDS011;44255;49.244;7.726;2022-07-18T04:05:56;1.70;;;1.13;;
58466;SDS011;44255;49.244;7.726;2022-07-18T04:08:21;1.70;;;1.33;;
58466;SDS011;44255;49.244;7.726;2022-07-18T04:10:47;3.60;;;1.60;;
58466;SDS011;44255;49.244;7.726;2022-07-18T04:13:12;2.15;;;1.27;;
58466;SDS011;44255;49.244;7.726;2022-07-18T04:15:37;3.07;;;1.27;;
58466;SDS011;44255;49.244;7.726;2022-07-18T04:18:04;4.25;;;1.35;;
58466;SDS011;44255;49.244;7.726;2022-07-18T04:20:29;2.08;;;1.30;;
58466;SDS011;44255;49.244;7.726;2022-07-18T04:22:56;3.05;;;1.55;;
58466;SDS011;44255;49.244;7.726;2022-07-18T04:25:24;5.63;;;1.02;;
58466;SDS011;44255;49.244;7.726;2022-07-18T04:27:51;1.92;;;1.20;;
58466;SDS011;44255;49.244;7.726;2022-07-18T04:30:18;2.08;;;1.30;;
58466;SDS011;44255;49.244;7.726;2022-07-18T04:32:45;4.10;;;1.40;;
58466;SDS011;44255;49.244;7.726;2022-07-18T04:35:10;2.35;;;1.20;;
58466;SDS011;44255;49.244;7.726;2022-07-18T04:37:37;2.15;;;1.25;;
58466;SDS011;44255;49.244;7.726;2022-07-18T04:40:03;2.75;;;1.75;;
58466;SDS011;44255;49.244;7.726;2022-07-18T04:42:30;2.30;;;1.60;;
58466;SDS011;44255;49.244;7.726;2022-07-18T04:44:56;2.77;;;1.30;;
58466;SDS011;44255;49.244;7.726;2022-07-18T04:47:22;2.38;;;1.40;;
58466;SDS011;44255;49.244;7.726;2022-07-18T04:49:47;3.30;;;1.10;;
58466;SDS011;44255;49.244;7.726;2022-07-18T04:52:12;1.93;;;1.20;;
58466;SDS011;44255;49.244;7.726;2022-07-18T04:54:38;4.07;;;1.40;;
58466;SDS011;44255;49.244;7.726;2022-07-18T04:57:03;4.43;;;1.10;;
58466;SDS011;44255;49.244;7.726;2022-07-18T04:59:28;3.03;;;1.63;;
58466;SDS011;44255;49.244;7.726;2022-07-18T05:01:53;1.40;;;1.30;;
58466;SDS011;44255;49.244;7.726;2022-07-18T05:04:19;6.53;;;1.37;;
58466;SDS011;44255;49.244;7.726;2022-07-18T05:06:44;5.03;;;1.43;;
58466;SDS011;44255;49.244;7.726;2022-07-18T05:09:09;1.53;;;1.10;;
58466;SDS011;44255;49.244;7.726;2022-07-18T05:11:34;2.50;;;1.40;;
58466;SDS011;44255;49.244;7.726;2022-07-18T05:14:00;3.10;;;1.30;;
58466;SDS011;44255;49.244;7.726;2022-07-18T05:16:26;2.67;;;1.40;;
58466;SDS011;44255;49.244;7.726;2022-07-18T05:18:51;7.80;;;1.33;;
58466;SDS011;44255;49.244;7.726;2022-07-18T05:21:16;2.10;;;1.33;;
58466;SDS011;44255;49.244;7.726;2022-07-18T05:23:42;5.27;;;1.30;;
58466;SDS011;44255;49.244;7.726;2022-07-18T05:26:07;4.07;;;1.60;;
58466;SDS011;44255;49.244;7.726;2022-07-18T05:28:32;2.60;;;1.33;;
58466;SDS011;44255;49.244;7.726;2022-07-18T05:30:58;2.57;;;1.30;;
58466;SDS011;44255;49.244;7.726;2022-07-18T05:33:24;2.83;;;1.45;;
58466;SDS011;44255;49.244;7.726;2022-07-18T05:35:49;2.87;;;1.47;;
58466;SDS011;44255;49.244;7.726;2022-07-18T05:38:14;2.97;;;1.27;;
58466;SDS011;44255;49.244;7.726;2022-07-18T05:40:40;3.43;;;1.40;;
58466;SDS011;44255;49.244;7.726;2022-07-18T05:43:05;2.20;;;1.40;;
58466;SDS011;44255;49.244;7.726;2022-07-18T05:45:31;3.95;;;1.20;;
58466;SDS011;44255;49.244;7.726;2022-07-18T05:47:56;2.00;;;1.23;;
58466;SDS011;44255;49.244;7.726;2022-07-18T05:50:22;3.43;;;1.40;;
58466;SDS011;44255;49.244;7.726;2022-07-18T05:52:49;2.75;;;1.45;;
58466;SDS011;44255;49.244;7.726;2022-07-18T05:55:15;1.77;;;1.10;;
58466;SDS011;44255;49.244;7.726;2022-07-18T05:57:40;3.23;;;1.30;;
58466;SDS011;44255;49.244;7.726;2022-07-18T06:00:07;3.97;;;1.67;;
58466;SDS011;44255;49.244;7.726;2022-07-18T06:02:34;2.30;;;1.10;;
58466;SDS011;44255;49.244;7.726;2022-07-18T06:05:00;1.48;;;1.10;;
58466;SDS011;44255;49.244;7.726;2022-07-18T06:07:26;2.60;;;1.43;;
58466;SDS011;44255;49.244;7.726;2022-07-18T06:09:51;2.80;;;1.50;;
58466;SDS011;44255;49.244;7.726;2022-07-18T06:12:16;3.93;;;1.33;;
58466;SDS011;44255;49.244;7.726;2022-07-18T06:14:42;3.67;;;1.20;;
58466;SDS011;44255;49.244;7.726;2022-07-18T06:17:07;1.73;;;1.10;;
58466;SDS011;44255;49.244;7.726;2022-07-18T06:19:33;2.13;;;1.10;;
58466;SDS011;44255;49.244;7.726;2022-07-18T06:21:58;1.63;;;1.05;;
58466;SDS011;44255;49.244;7.726;2022-07-18T06:24:24;1.38;;;1.20;;
58466;SDS011;44255;49.244;7.726;2022-07-18T06:26:50;3.50;;;1.23;;
58466;SDS011;44255;49.244;7.726;2022-07-18T06:29:16;1.70;;;1.05;;
58466;SDS011;44255;49.244;7.726;2022-07-18T06:31:42;3.10;;;1.50;;
58466;SDS011;44255;49.244;7.726;2022-07-18T06:34:07;3.38;;;1.33;;
58466;SDS011;44255;49.244;7.726;2022-07-18T06:36:32;1.97;;;1.20;;
58466;SDS011;44255;49.244;7.726;2022-07-18T06:38:58;5.70;;;1.57;;
58466;SDS011;44255;49.244;7.726;2022-07-18T06:41:23;4.23;;;1.43;;
58466;SDS011;44255;49.244;7.726;2022-07-18T06:43:49;4.50;;;1.93;;
58466;SDS011;44255;49.244;7.726;2022-07-18T06:46:14;3.60;;;1.70;;
58466;SDS011;44255;49.244;7.726;2022-07-18T06:48:39;5.60;;;1.53;;
58466;SDS011;44255;49.244;7.726;2022-07-18T06:51:05;2.97;;;1.73;;
58466;SDS011;44255;49.244;7.726;2022-07-18T06:53:31;3.03;;;1.25;;
58466;SDS011;44255;49.244;7.726;2022-07-18T06:55:56;2.13;;;1.40;;
58466;SDS011;44255;49.244;7.726;2022-07-18T06:58:22;5.10;;;1.60;;
58466;SDS011;44255;49.244;7.726;2022-07-18T07:00:48;2.20;;;1.48;;
58466;SDS011;44255;49.244;7.726;2022-07-18T07:03:14;4.65;;;1.50;;
58466;SDS011;44255;49.244;7.726;2022-07-18T07:05:39;3.27;;;1.30;;
58466;SDS011;44255;49.244;7.726;2022-07-18T07:08:04;1.67;;;1.20;;
58466;SDS011;44255;49.244;7.726;2022-07-18T07:10:30;2.53;;;1.47;;
58466;SDS011;44255;49.244;7.726;2022-07-18T07:12:56;1.65;;;1.17;;
58466;SDS011;44255;49.244;7.726;2022-07-18T07:15:21;1.67;;;1.30;;
58466;SDS011;44255;49.244;7.726;2022-07-18T07:17:48;2.08;;;1.20;;
58466;SDS011;44255;49.244;7.726;2022-07-18T07:20:15;3.30;;;1.50;;
58466;SDS011;44255;49.244;7.726;2022-07-18T07:22:46;3.90;;;1.60;;
58466;SDS011;44255;49.244;7.726;2022-07-18T07:25:32;2.47;;;1.35;;
58466;SDS011;44255;49.244;7.726;2022-07-18T07:27:58;2.83;;;1.27;;
58466;SDS011;44255;49.244;7.726;2022-07-18T07:30:23;6.83;;;1.70;;
58466;SDS011;44255;49.244;7.726;2022-07-18T07:32:49;1.95;;;1.30;;
58466;SDS011;44255;49.244;7.726;2022-07-18T07:37:42;4.43;;;1.40;;
58466;SDS011;44255;49.244;7.726;2022-07-18T07:40:10;3.70;;;1.35;;
58466;SDS011;44255;49.244;7.726;2022-07-18T07:42:36;5.05;;;1.13;;
58466;SDS011;44255;49.244;7.726;2022-07-18T07:45:02;1.33;;;1.00;;
58466;SDS011;44255;49.244;7.726;2022-07-18T07:49:54;1.33;;;1.08;;
58466;SDS011;44255;49.244;7.726;2022-07-18T07:52:20;5.28;;;1.10;;
58466;SDS011;44255;49.244;7.726;2022-07-18T07:54:45;1.88;;;1.27;;
58466;SDS011;44255;49.244;7.726;2022-07-18T07:57:11;1.20;;;0.98;;
58466;SDS011;44255;49.244;7.726;2022-07-18T07:59:37;5.53;;;1.10;;
58466;SDS011;44255;49.244;7.726;2022-07-18T08:02:02;1.97;;;0.90;;
58466;SDS011;44255;49.244;7.726;2022-07-18T08:04:28;2.80;;;1.00;;
58466;SDS011;44255;49.244;7.726;2022-07-18T08:06:53;1.97;;;1.30;;
58466;SDS011;44255;49.244;7.726;2022-07-18T08:09:18;1.13;;;0.90;;
58466;SDS011;44255;49.244;7.726;2022-07-18T08:11:44;2.80;;;0.97;;
58466;SDS011;44255;49.244;7.726;2022-07-18T08:14:09;2.50;;;0.90;;
58466;SDS011;44255;49.244;7.726;2022-07-18T08:16:34;2.90;;;0.90;;
58466;SDS011;44255;49.244;7.726;2022-07-18T08:19:00;4.13;;;1.10;;
58466;SDS011;44255;49.244;7.726;2022-07-18T08:21:25;3.30;;;0.90;;
58466;SDS011;44255;49.244;7.726;2022-07-18T08:23:51;3.95;;;0.82;;
58466;SDS011;44255;49.244;7.726;2022-07-18T08:26:16;4.50;;;0.93;;
58466;SDS011;44255;49.244;7.726;2022-07-18T08:28:42;2.90;;;1.20;;
58466;SDS011;44255;49.244;7.726;2022-07-18T08:31:07;2.07;;;0.80;;
58466;SDS011;44255;49.244;7.726;2022-07-18T08:33:32;4.77;;;1.17;;
58466;SDS011;44255;49.244;7.726;2022-07-18T08:35:58;1.85;;;0.77;;
58466;SDS011;44255;49.244;7.726;2022-07-18T08:38:23;3.43;;;0.83;;
58466;SDS011;44255;49.244;7.726;2022-07-18T08:40:48;4.47;;;1.00;;
58466;SDS011;44255;49.244;7.726;2022-07-18T08:43:17;3.28;;;0.90;;
58466;SDS011;44255;49.244;7.726;2022-07-18T08:45:43;4.68;;;1.20;;
58466;SDS011;44255;49.244;7.726;2022-07-18T08:50:37;3.17;;;1.05;;
58466;SDS011;44255;49.244;7.726;2022-07-18T08:53:03;1.98;;;0.98;;
58466;SDS011;44255;49.244;7.726;2022-07-18T08:55:28;1.88;;;1.00;;
58466;SDS011;44255;49.244;7.726;2022-07-18T08:57:53;2.00;;;0.93;;
58466;SDS011;44255;49.244;7.726;2022-07-18T09:00:19;2.60;;;1.10;;
58466;SDS011;44255;49.244;7.726;2022-07-18T09:02:46;1.95;;;0.98;;
58466;SDS011;44255;49.244;7.726;2022-07-18T09:05:18;4.57;;;0.90;;
58466;SDS011;44255;49.244;7.726;2022-07-18T09:07:45;2.00;;;1.23;;
58466;SDS011;44255;49.244;7.726;2022-07-18T09:10:10;2.03;;;1.00;;
58466;SDS011;44255;49.244;7.726;2022-07-18T09:12:35;2.20;;;1.00;;
58466;SDS011;44255;49.244;7.726;2022-07-18T09:15:05;3.30;;;0.90;;
58466;SDS011;44255;49.244;7.726;2022-07-18T09:17:33;5.05;;;0.93;;
58466;SDS011;44255;49.244;7.726;2022-07-18T09:20:01;2.65;;;1.25;;
58466;SDS011;44255;49.244;7.726;2022-07-18T09:22:35;1.33;;;0.95;;
58466;SDS011;44255;49.244;7.726;2022-07-18T09:25:07;2.65;;;1.20;;
58466;SDS011;44255;49.244;7.726;2022-07-18T09:27:43;2.63;;;1.02;;
58466;SDS011;44255;49.244;7.726;2022-07-18T09:30:12;3.38;;;0.90;;
58466;SDS011;44255;49.244;7.726;2022-07-18T09:32:38;3.30;;;0.90;;
58466;SDS011;44255;49.244;7.726;2022-07-18T09:35:05;2.00;;;0.90;;
58466;SDS011;44255;49.244;7.726;2022-07-18T09:37:32;3.30;;;1.00;;
58466;SDS011;44255;49.244;7.726;2022-07-18T09:40:19;1.65;;;0.80;;
58466;SDS011;44255;49.244;7.726;2022-07-18T09:42:54;1.65;;;0.85;;
58466;SDS011;44255;49.244;7.726;2022-07-18T09:45:31;5.35;;;1.60;;
58466;SDS011;44255;49.244;7.726;2022-07-18T09:50:27;2.78;;;1.25;;
58466;SDS011;44255;49.244;7.726;2022-07-18T09:52:58;3.30;;;1.20;;
58466;SDS011;44255;49.244;7.726;2022-07-18T09:55:33;4.88;;;1.17;;
58466;SDS011;44255;49.244;7.726;2022-07-18T09:58:06;4.95;;;0.95;;
58466;SDS011;44255;49.244;7.726;2022-07-18T10:00:34;2.03;;;1.08;;
58466;SDS011;44255;49.244;7.726;2022-07-18T10:03:02;2.88;;;1.05;;
58466;SDS011;44255;49.244;7.726;2022-07-18T10:05:30;2.65;;;1.00;;
58466;SDS011;44255;49.244;7.726;2022-07-18T10:08:00;3.42;;;1.20;;
58466;SDS011;44255;49.244;7.726;2022-07-18T10:10:28;1.80;;;1.00;;
58466;SDS011;44255;49.244;7.726;2022-07-18T10:12:54;2.75;;;1.20;;
58466;SDS011;44255;49.244;7.726;2022-07-18T10:15:21;2.30;;;0.82;;
58466;SDS011;44255;49.244;7.726;2022-07-18T10:17:48;1.55;;;0.95;;
58466;SDS011;44255;49.244;7.726;2022-07-18T10:20:14;2.80;;;1.00;;
58466;SDS011;44255;49.244;7.726;2022-07-18T10:22:40;1.38;;;1.10;;
58466;SDS011;44255;49.244;7.726;2022-07-18T10:25:12;4.70;;;0.80;;
58466;SDS011;44255;49.244;7.726;2022-07-18T10:30:16;2.30;;;0.88;;
58466;SDS011;44255;49.244;7.726;2022-07-18T10:32:44;4.45;;;1.00;;
58466;SDS011;44255;49.244;7.726;2022-07-18T10:35:10;1.58;;;0.90;;
58466;SDS011;44255;49.244;7.726;2022-07-18T10:37:40;1.75;;;1.00;;
58466;SDS011;44255;49.244;7.726;2022-07-18T10:40:25;2.60;;;0.87;;
58466;SDS011;44255;49.244;7.726;2022-07-18T10:46:04;2.65;;;1.25;;
58466;SDS011;44255;49.244;7.726;2022-07-18T10:51:27;3.38;;;1.30;;
58466;SDS011;44255;49.244;7.726;2022-07-18T10:58:54;1.10;;;1.00;;
58466;SDS011;44255;49.244;7.726;2022-07-18T11:01:20;2.38;;;1.00;;
58466;SDS011;44255;49.244;7.726;2022-07-18T11:03:47;1.85;;;0.82;;
58466;SDS011;44255;49.244;7.726;2022-07-18T11:06:14;3.70;;;0.80;;
58466;SDS011;44255;49.244;7.726;2022-07-18T11:08:40;2.08;;;0.82;;
58466;SDS011;44255;49.244;7.726;2022-07-18T11:11:06;2.75;;;0.88;;
58466;SDS011;44255;49.244;7.726;2022-07-18T11:13:39;4.57;;;1.00;;
58466;SDS011;44255;49.244;7.726;2022-07-18T11:21:21;3.27;;;1.00;;
58466;SDS011;44255;49.244;7.726;2022-07-18T11:23:51;2.88;;;0.90;;
58466;SDS011;44255;49.244;7.726;2022-07-18T11:26:20;1.63;;;1.05;;
58466;SDS011;44255;49.244;7.726;2022-07-18T11:28:46;2.55;;;0.80;;
58466;SDS011;44255;49.244;7.726;2022-07-18T11:31:15;3.30;;;1.00;;
58466;SDS011;44255;49.244;7.726;2022-07-18T11:33:44;4.50;;;0.93;;
58466;SDS011;44255;49.244;7.726;2022-07-18T11:36:12;4.30;;;1.00;;
58466;SDS011;44255;49.244;7.726;2022-07-18T11:38:39;1.65;;;1.00;;
58466;SDS011;44255;49.244;7.726;2022-07-18T11:41:11;1.17;;;0.80;;
58466;SDS011;44255;49.244;7.726;2022-07-18T11:43:36;1.65;;;0.98;;
58466;SDS011;44255;49.244;7.726;2022-07-18T11:48:31;1.50;;;0.80;;
58466;SDS011;44255;49.244;7.726;2022-07-18T11:50:57;2.47;;;1.00;;
58466;SDS011;44255;49.244;7.726;2022-07-18T11:55:48;1.10;;;0.90;;
58466;SDS011;44255;49.244;7.726;2022-07-18T11:58:17;4.90;;;1.00;;
58466;SDS011;44255;49.244;7.726;2022-07-18T12:00:43;3.67;;;0.82;;
58466;SDS011;44255;49.244;7.726;2022-07-18T12:05:40;3.20;;;0.80;;
58466;SDS011;44255;49.244;7.726;2022-07-18T12:11:08;3.65;;;1.00;;
58466;SDS011;44255;49.244;7.726;2022-07-18T12:16:30;1.90;;;0.82;;
58466;SDS011;44255;49.244;7.726;2022-07-18T12:19:20;3.67;;;0.90;;
58466;SDS011;44255;49.244;7.726;2022-07-18T12:29:53;1.92;;;1.02;;
58466;SDS011;44255;49.244;7.726;2022-07-18T12:32:29;2.13;;;0.90;;
58466;SDS011;44255;49.244;7.726;2022-07-18T12:37:37;1.98;;;0.70;;
58466;SDS011;44255;49.244;7.726;2022-07-18T12:40:07;3.40;;;1.00;;
58466;SDS011;44255;49.244;7.726;2022-07-18T12:42:36;2.78;;;0.90;;
58466;SDS011;44255;49.244;7.726;2022-07-18T12:45:03;5.22;;;1.00;;
58466;SDS011;44255;49.244;7.726;2022-07-18T12:47:29;1.38;;;0.85;;
58466;SDS011;44255;49.244;7.726;2022-07-18T12:49:55;4.50;;;1.08;;
58466;SDS011;44255;49.244;7.726;2022-07-18T12:52:20;1.52;;;0.90;;
58466;SDS011;44255;49.244;7.726;2022-07-18T12:54:46;1.42;;;0.80;;
58466;SDS011;44255;49.244;7.726;2022-07-18T12:57:12;3.25;;;0.90;;
58466;SDS011;44255;49.244;7.726;2022-07-18T12:59:37;1.65;;;0.80;;
58466;SDS011;44255;49.244;7.726;2022-07-18T13:02:03;4.00;;;0.90;;
58466;SDS011;44255;49.244;7.726;2022-07-18T13:04:29;2.58;;;0.88;;
58466;SDS011;44255;49.244;7.726;2022-07-18T13:06:54;3.58;;;1.02;;
58466;SDS011;44255;49.244;7.726;2022-07-18T13:09:20;4.32;;;1.08;;
58466;SDS011;44255;49.244;7.726;2022-07-18T13:11:46;1.83;;;1.10;;
58466;SDS011;44255;49.244;7.726;2022-07-18T13:14:13;2.25;;;0.95;;
58466;SDS011;44255;49.244;7.726;2022-07-18T13:16:40;3.50;;;0.90;;
58466;SDS011;44255;49.244;7.726;2022-07-18T13:19:08;3.88;;;1.00;;
58466;SDS011;44255;49.244;7.726;2022-07-18T13:21:33;1.13;;;0.80;;
58466;SDS011;44255;49.244;7.726;2022-07-18T13:23:59;5.40;;;0.95;;
58466;SDS011;44255;49.244;7.726;2022-07-18T13:26:24;4.90;;;0.70;;
58466;SDS011;44255;49.244;7.726;2022-07-18T13:28:49;3.97;;;1.00;;
58466;SDS011;44255;49.244;7.726;2022-07-18T13:31:14;2.42;;;1.08;;
58466;SDS011;44255;49.244;7.726;2022-07-18T13:33:40;3.08;;;0.90;;
58466;SDS011;44255;49.244;7.726;2022-07-18T13:36:05;1.60;;;0.80;;
58466;SDS011;44255;49.244;7.726;2022-07-18T13:38:30;1.70;;;1.00;;
58466;SDS011;44255;49.244;7.726;2022-07-18T13:40:56;3.38;;;0.90;;
58466;SDS011;44255;49.244;7.726;2022-07-18T13:43:21;2.65;;;1.00;;
58466;SDS011;44255;49.244;7.726;2022-07-18T13:45:46;4.15;;;1.00;;
58466;SDS011;44255;49.244;7.726;2022-07-18T13:48:12;3.88;;;1.20;;
58466;SDS011;44255;49.244;7.726;2022-07-18T13:50:37;1.90;;;0.98;;
58466;SDS011;44255;49.244;7.726;2022-07-18T13:53:03;1.63;;;1.02;;
58466;SDS011;44255;49.244;7.726;2022-07-18T13:55:28;2.53;;;1.10;;
58466;SDS011;44255;49.244;7.726;2022-07-18T13:57:53;2.05;;;1.30;;
58466;SDS011;44255;49.244;7.726;2022-07-18T14:00:19;1.30;;;1.00;;
58466;SDS011;44255;49.244;7.726;2022-07-18T14:05:09;6.07;;;1.30;;
58466;SDS011;44255;49.244;7.726;2022-07-18T14:07:35;2.17;;;1.15;;
58466;SDS011;44255;49.244;7.726;2022-07-18T14:12:25;3.90;;;1.23;;
58466;SDS011;44255;49.244;7.726;2022-07-18T14:17:16;2.13;;;1.10;;
58466;SDS011;44255;49.244;7.726;2022-07-18T14:19:41;3.55;;;0.95;;
58466;SDS011;44255;49.244;7.726;2022-07-18T14:22:06;1.08;;;0.90;;
58466;SDS011;44255;49.244;7.726;2022-07-18T14:24:34;1.90;;;1.10;;
58466;SDS011;44255;49.244;7.726;2022-07-18T14:27:00;2.47;;;1.45;;
58466;SDS011;44255;49.244;7.726;2022-07-18T14:29:25;4.95;;;1.48;;
58466;SDS011;44255;49.244;7.726;2022-07-18T14:34:16;3.20;;;1.13;;
58466;SDS011;44255;49.244;7.726;2022-07-18T14:39:06;1.48;;;1.05;;
58466;SDS011;44255;49.244;7.726;2022-07-18T14:41:31;4.50;;;1.38;;
58466;SDS011;44255;49.244;7.726;2022-07-18T14:43:57;4.30;;;1.40;;
58466;SDS011;44255;49.244;7.726;2022-07-18T14:46:22;1.75;;;0.93;;
58466;SDS011;44255;49.244;7.726;2022-07-18T14:51:16;1.95;;;1.08;;
58466;SDS011;44255;49.244;7.726;2022-07-18T14:56:07;2.77;;;1.30;;
58466;SDS011;44255;49.244;7.726;2022-07-18T15:00:58;3.90;;;1.30;;
58466;SDS011;44255;49.244;7.726;2022-07-18T15:05:48;3.17;;;1.13;;
58466;SDS011;44255;49.244;7.726;2022-07-18T15:10:39;6.03;;;1.48;;
58466;SDS011;44255;49.244;7.726;2022-07-18T15:15:30;3.42;;;1.27;;
58466;SDS011;44255;49.244;7.726;2022-07-18T15:20:21;2.77;;;1.40;;
58466;SDS011;44255;49.244;7.726;2022-07-18T15:25:12;2.60;;;1.63;;
58466;SDS011;44255;49.244;7.726;2022-07-18T15:27:37;2.53;;;1.25;;
58466;SDS011;44255;49.244;7.726;2022-07-18T15:32:28;4.68;;;1.17;;
58466;SDS011;44255;49.244;7.726;2022-07-18T15:34:54;3.10;;;1.10;;
58466;SDS011;44255;49.244;7.726;2022-07-18T15:37:19;2.45;;;1.27;;
58466;SDS011;44255;49.244;7.726;2022-07-18T15:42:10;2.27;;;1.17;;
58466;SDS011;44255;49.244;7.726;2022-07-18T15:47:02;4.82;;;1.40;;
58466;SDS011;44255;49.244;7.726;2022-07-18T15:49:29;4.97;;;1.67;;
58466;SDS011;44255;49.244;7.726;2022-07-18T15:54:19;5.80;;;1.43;;
58466;SDS011;44255;49.244;7.726;2022-07-18T15:59:10;5.28;;;1.40;;
58466;SDS011;44255;49.244;7.726;2022-07-18T16:04:01;2.87;;;1.50;;
58466;SDS011;44255;49.244;7.726;2022-07-18T16:08:52;3.33;;;1.60;;
58466;SDS011;44255;49.244;7.726;2022-07-18T16:13:43;3.37;;;1.67;;
58466;SDS011;44255;49.244;7.726;2022-07-18T16:18:33;2.72;;;1.55;;
58466;SDS011;44255;49.244;7.726;2022-07-18T16:23:24;3.58;;;1.45;;
58466;SDS011;44255;49.244;7.726;2022-07-18T16:25:49;6.32;;;1.73;;
58466;SDS011;44255;49.244;7.726;2022-07-18T16:30:40;2.07;;;1.40;;
58466;SDS011;44255;49.244;7.726;2022-07-18T16:35:30;4.60;;;1.80;;
58466;SDS011;44255;49.244;7.726;2022-07-18T16:40:21;4.93;;;1.50;;
58466;SDS011;44255;49.244;7.726;2022-07-18T16:45:13;3.20;;;1.48;;
58466;SDS011;44255;49.244;7.726;2022-07-18T16:47:40;5.30;;;1.58;;
58466;SDS011;44255;49.244;7.726;2022-07-18T16:52:31;5.65;;;1.80;;
58466;SDS011;44255;49.244;7.726;2022-07-18T16:57:22;6.10;;;1.60;;
58466;SDS011;44255;49.244;7.726;2022-07-18T16:59:48;5.35;;;1.70;;
58466;SDS011;44255;49.244;7.726;2022-07-18T17:04:41;7.00;;;1.60;;
58466;SDS011;44255;49.244;7.726;2022-07-18T17:09:32;3.60;;;1.58;;
58466;SDS011;44255;49.244;7.726;2022-07-18T17:14:23;4.57;;;1.60;;
58466;SDS011;44255;49.244;7.726;2022-07-18T17:19:14;5.22;;;1.77;;
58466;SDS011;44255;49.244;7.726;2022-07-18T17:21:40;3.53;;;1.60;;
58466;SDS011;44255;49.244;7.726;2022-07-18T17:24:06;3.22;;;2.05;;
58466;SDS011;44255;49.244;7.726;2022-07-18T17:28:58;4.97;;;1.60;;
58466;SDS011;44255;49.244;7.726;2022-07-18T17:33:49;3.97;;;1.90;;
58466;SDS011;44255;49.244;7.726;2022-07-18T17:38:40;5.20;;;1.60;;
58466;SDS011;44255;49.244;7.726;2022-07-18T17:43:31;4.70;;;1.83;;
58466;SDS011;44255;49.244;7.726;2022-07-18T17:48:22;2.47;;;1.52;;
58466;SDS011;44255;49.244;7.726;2022-07-18T17:53:13;1.95;;;1.50;;
58466;SDS011;44255;49.244;7.726;2022-07-18T17:55:38;7.50;;;1.73;;
58466;SDS011;44255;49.244;7.726;2022-07-18T17:58:04;4.45;;;1.70;;
58466;SDS011;44255;49.244;7.726;2022-07-18T18:00:29;4.68;;;1.30;;
58466;SDS011;44255;49.244;7.726;2022-07-18T18:02:55;4.35;;;1.60;;
58466;SDS011;44255;49.244;7.726;2022-07-18T18:05:20;5.53;;;1.40;;
58466;SDS011;44255;49.244;7.726;2022-07-18T18:07:45;3.45;;;1.70;;
58466;SDS011;44255;49.244;7.726;2022-07-18T18:10:11;3.05;;;1.38;;
58466;SDS011;44255;49.244;7.726;2022-07-18T18:12:36;2.17;;;1.50;;
58466;SDS011;44255;49.244;7.726;2022-07-18T18:15:03;2.58;;;1.17;;
58466;SDS011;44255;49.244;7.726;2022-07-18T18:17:28;4.07;;;1.67;;
58466;SDS011;44255;49.244;7.726;2022-07-18T18:19:54;3.47;;;1.42;;
58466;SDS011;44255;49.244;7.726;2022-07-18T18:22:19;10.93;;;2.03;;
58466;SDS011;44255;49.244;7.726;2022-07-18T18:24:45;8.80;;;2.78;;
58466;SDS011;44255;49.244;7.726;2022-07-18T18:27:10;3.83;;;1.80;;
58466;SDS011;44255;49.244;7.726;2022-07-18T18:29:35;7.47;;;2.23;;
58466;SDS011;44255;49.244;7.726;2022-07-18T18:32:01;2.40;;;1.50;;
58466;SDS011;44255;49.244;7.726;2022-07-18T18:34:26;4.68;;;1.63;;
58466;SDS011;44255;49.244;7.726;2022-07-18T18:36:51;5.38;;;1.60;;
58466;SDS011;44255;49.244;7.726;2022-07-18T18:39:20;3.25;;;1.80;;
58466;SDS011;44255;49.244;7.726;2022-07-18T18:41:53;4.45;;;1.60;;
58466;SDS011;44255;49.244;7.726;2022-07-18T18:44:19;3.72;;;1.50;;
58466;SDS011;44255;49.244;7.726;2022-07-18T18:46:45;9.02;;;1.67;;
58466;SDS011;44255;49.244;7.726;2022-07-18T18:49:10;3.67;;;1.87;;
58466;SDS011;44255;49.244;7.726;2022-07-18T18:51:39;5.00;;;1.95;;
58466;SDS011;44255;49.244;7.726;2022-07-18T18:54:04;5.40;;;2.20;;
58466;SDS011;44255;49.244;7.726;2022-07-18T18:56:31;5.75;;;2.38;;
58466;SDS011;44255;49.244;7.726;2022-07-18T18:58:56;5.17;;;3.13;;
58466;SDS011;44255;49.244;7.726;2022-07-18T19:01:21;5.73;;;2.37;;
58466;SDS011;44255;49.244;7.726;2022-07-18T19:03:48;5.70;;;1.90;;
58466;SDS011;44255;49.244;7.726;2022-07-18T19:06:13;1.77;;;1.50;;
58466;SDS011;44255;49.244;7.726;2022-07-18T19:08:39;2.20;;;1.40;;
58466;SDS011;44255;49.244;7.726;2022-07-18T19:11:05;3.97;;;1.88;;
58466;SDS011;44255;49.244;7.726;2022-07-18T19:13:31;6.68;;;2.30;;
58466;SDS011;44255;49.244;7.726;2022-07-18T19:15:56;3.83;;;1.87;;
58466;SDS011;44255;49.244;7.726;2022-07-18T19:18:21;4.30;;;1.67;;
58466;SDS011;44255;49.244;7.726;2022-07-18T19:20:47;4.83;;;1.93;;
58466;SDS011;44255;49.244;7.726;2022-07-18T19:23:13;6.38;;;1.65;;
58466;SDS011;44255;49.244;7.726;2022-07-18T19:25:39;5.43;;;1.75;;
58466;SDS011;44255;49.244;7.726;2022-07-18T19:28:05;2.20;;;1.60;;
58466;SDS011;44255;49.244;7.726;2022-07-18T19:30:31;5.47;;;1.45;;
58466;SDS011;44255;49.244;7.726;2022-07-18T19:32:56;4.20;;;1.53;;
58466;SDS011;44255;49.244;7.726;2022-07-18T19:35:21;2.60;;;1.80;;
58466;SDS011;44255;49.244;7.726;2022-07-18T19:37:47;3.17;;;1.45;;
58466;SDS011;44255;49.244;7.726;2022-07-18T19:40:13;3.20;;;1.80;;
58466;SDS011;44255;49.244;7.726;2022-07-18T19:42:38;3.33;;;1.60;;
58466;SDS011;44255;49.244;7.726;2022-07-18T19:45:04;4.20;;;1.60;;
58466;SDS011;44255;49.244;7.726;2022-07-18T19:47:30;5.68;;;2.15;;
58466;SDS011;44255;49.244;7.726;2022-07-18T19:49:55;5.37;;;1.77;;
58466;SDS011;44255;49.244;7.726;2022-07-18T19:52:20;5.13;;;1.73;;
58466;SDS011;44255;49.244;7.726;2022-07-18T19:54:45;5.43;;;2.50;;
58466;SDS011;44255;49.244;7.726;2022-07-18T19:57:11;4.80;;;1.60;;
58466;SDS011;44255;49.244;7.726;2022-07-18T19:59:36;4.10;;;1.40;;
58466;SDS011;44255;49.244;7.726;2022-07-18T20:02:01;4.70;;;1.43;;
58466;SDS011;44255;49.244;7.726;2022-07-18T20:04:27;5.00;;;1.50;;
58466;SDS011;44255;49.244;7.726;2022-07-18T20:06:52;3.53;;;1.37;;
58466;SDS011;44255;49.244;7.726;2022-07-18T20:09:18;5.50;;;1.83;;
58466;SDS011;44255;49.244;7.726;2022-07-18T20:11:43;3.63;;;1.70;;
58466;SDS011;44255;49.244;7.726;2022-07-18T20:14:08;4.97;;;1.90;;
58466;SDS011;44255;49.244;7.726;2022-07-18T20:16:34;2.87;;;1.60;;
58466;SDS011;44255;49.244;7.726;2022-07-18T20:18:59;4.80;;;1.77;;
58466;SDS011;44255;49.244;7.726;2022-07-18T20:21:25;2.63;;;1.40;;
58466;SDS011;44255;49.244;7.726;2022-07-18T20:23:50;2.25;;;1.63;;
58466;SDS011;44255;49.244;7.726;2022-07-18T20:26:16;2.53;;;1.70;;
58466;SDS011;44255;49.244;7.726;2022-07-18T20:28:42;4.40;;;1.80;;
58466;SDS011;44255;49.244;7.726;2022-07-18T20:31:07;2.40;;;1.80;;
58466;SDS011;44255;49.244;7.726;2022-07-18T20:33:33;1.97;;;1.40;;
58466;SDS011;44255;49.244;7.726;2022-07-18T20:35:58;3.00;;;1.70;;
58466;SDS011;44255;49.244;7.726;2022-07-18T20:38:23;3.50;;;1.60;;
58466;SDS011;44255;49.244;7.726;2022-07-18T20:40:49;3.73;;;1.70;;